Time;durP1;ratioP1;P1;durP2;ratioP2;P2;SDS_P1;SDS_P2;PMS_P1;PMS_P2;Temp;Humidity;BMP_temperature;BMP_pressure;BME280_temperature;BME280_humidity;BME280_pressure;Samples;Min_cycle;Max_cycle;Signal;HPM_P1;HPM_P2
2023/10/14 04:31:38;;;;;;;0.00;0.00;;;15.20;70.00;;;;;;5420507;23;20045;-83
2023/10/14 04:34:06;;;;;;;0.10;0.10;;;15.20;69.80;;;;;;4900142;29;20032;-84
2023/10/14 04:36:37;;;;;;;0.10;0.10;;;15.30;69.70;;;;;;4878842;29;20032;-84
2023/10/14 04:39:15;;;;;;;0.00;0.00;;;15.30;69.80;;;;;;4884724;29;20525;-84
2023/10/14 04:44:45;;;;;;;0.00;0.00;;;15.20;69.50;;;;;;4900308;29;20510;-83
2023/10/14 04:47:19;;;;;;;0.10;0.10;;;15.20;69.30;;;;;;4903463;29;20457;-84
2023/10/14 04:49:51;;;;;;;0.10;0.10;;;15.20;69.00;;;;;;4891878;29;20025;-84
2023/10/14 04:52:22;;;;;;;0.10;0.10;;;15.20;69.20;;;;;;4867890;29;20035;-84
2023/10/14 04:55:07;;;;;;;0.08;0.08;;;15.20;69.40;;;;;;4867997;29;20051;-84
2023/10/14 04:57:33;;;;;;;0.00;0.00;;;15.20;69.10;;;;;;4867787;29;20033;-84
2023/10/14 05:00:08;;;;;;;0.00;0.00;;;15.20;68.90;;;;;;4867618;29;20077;-84
2023/10/14 05:02:38;;;;;;;0.00;0.00;;;15.20;69.00;;;;;;4869073;29;20401;-84
2023/10/14 05:05:07;;;;;;;0.00;0.00;;;15.30;68.80;;;;;;4883965;29;20032;-83
2023/10/14 05:07:35;;;;;;;0.10;0.10;;;15.20;68.50;;;;;;4884298;29;20043;-84
2023/10/14 05:10:09;;;;;;;0.00;0.00;;;15.20;68.60;;;;;;4903025;29;20025;-83
2023/10/14 05:12:40;;;;;;;0.10;0.10;;;15.20;68.40;;;;;;4885892;29;20041;-84
2023/10/14 05:15:19;;;;;;;0.00;0.00;;;15.30;68.50;;;;;;4885097;29;20100;-83
2023/10/14 05:17:49;;;;;;;0.03;0.03;;;15.20;68.20;;;;;;4881613;29;20033;-84
2023/10/14 05:22:59;;;;;;;0.10;0.10;;;15.10;68.70;;;;;;4900935;29;20084;-84
2023/10/14 05:25:28;;;;;;;0.05;0.05;;;15.10;68.80;;;;;;4902835;29;20433;-84
2023/10/14 05:27:58;;;;;;;0.00;0.00;;;15.20;68.50;;;;;;4902604;29;20408;-84
2023/10/14 05:30:33;;;;;;;0.00;0.00;;;15.10;68.10;;;;;;4875910;29;20120;-84
2023/10/14 05:33:13;;;;;;;0.08;0.08;;;15.10;67.90;;;;;;4882807;29;20064;-84
2023/10/14 05:35:40;;;;;;;0.10;0.10;;;15.10;68.30;;;;;;4890046;29;20017;-84
2023/10/14 05:38:10;;;;;;;0.00;0.00;;;15.10;68.30;;;;;;4867323;29;20037;-84
2023/10/14 05:40:40;;;;;;;0.10;0.10;;;15.00;68.60;;;;;;4866855;29;20029;-84
2023/10/14 05:43:08;;;;;;;0.00;0.00;;;15.10;68.70;;;;;;4867233;29;20037;-84
2023/10/14 05:45:37;;;;;;;0.10;0.10;;;15.10;68.50;;;;;;4883671;29;20025;-83
2023/10/14 05:48:03;;;;;;;0.00;0.00;;;15.10;68.10;;;;;;4866740;29;20040;-84
2023/10/14 05:50:30;;;;;;;0.10;0.10;;;15.00;67.80;;;;;;4883438;29;20029;-83
2023/10/14 05:52:56;;;;;;;0.00;0.00;;;15.00;68.20;;;;;;4866864;29;20096;-84
2023/10/14 05:55:21;;;;;;;0.10;0.10;;;15.00;68.00;;;;;;4883435;29;20053;-83
2023/10/14 05:57:48;;;;;;;0.10;0.10;;;15.00;67.90;;;;;;4866912;29;20126;-82
2023/10/14 06:00:25;;;;;;;0.10;0.10;;;15.00;68.00;;;;;;4866923;29;20032;-84
2023/10/14 06:02:52;;;;;;;0.08;0.08;;;15.00;68.00;;;;;;4866592;29;20029;-83
2023/10/14 06:05:31;;;;;;;0.10;0.10;;;14.90;67.70;;;;;;4883280;29;20109;-82
2023/10/14 06:08:00;;;;;;;0.10;0.10;;;14.90;68.10;;;;;;4883207;29;20033;-80
2023/10/14 06:10:29;;;;;;;0.10;0.10;;;14.80;67.80;;;;;;4883474;29;20059;-81
2023/10/14 06:12:58;;;;;;;0.00;0.00;;;14.80;67.80;;;;;;4883150;29;20029;-83
2023/10/14 06:15:25;;;;;;;0.10;0.10;;;14.80;67.70;;;;;;4883090;29;20077;-79
2023/10/14 06:17:54;;;;;;;0.00;0.00;;;14.90;67.60;;;;;;4866233;29;20035;-81
2023/10/14 06:20:21;;;;;;;0.10;0.10;;;14.90;67.70;;;;;;4883272;29;20387;-81
2023/10/14 06:22:46;;;;;;;0.10;0.10;;;14.90;67.40;;;;;;4897885;29;20029;-81
2023/10/14 06:25:16;;;;;;;0.10;0.10;;;14.90;67.40;;;;;;4901738;29;20027;-79
2023/10/14 06:27:45;;;;;;;0.10;0.10;;;14.90;67.10;;;;;;4884874;29;20470;-78
2023/10/14 06:30:20;;;;;;;0.10;0.10;;;15.00;67.50;;;;;;4884924;29;20104;-78
2023/10/14 06:32:52;;;;;;;0.10;0.10;;;15.00;67.20;;;;;;4886270;29;20173;-80
2023/10/14 06:35:19;;;;;;;0.00;0.00;;;14.90;67.20;;;;;;4882843;29;20032;-77
2023/10/14 06:37:45;;;;;;;0.10;0.10;;;14.90;67.60;;;;;;4892764;29;20092;-78
2023/10/14 06:40:19;;;;;;;0.00;0.00;;;14.80;67.60;;;;;;4892893;29;20425;-77
2023/10/14 06:42:48;;;;;;;0.10;0.10;;;14.90;67.20;;;;;;4898073;29;20037;-77
2023/10/14 06:45:17;;;;;;;0.10;0.10;;;14.90;67.40;;;;;;4901599;29;20107;-78
2023/10/14 06:47:50;;;;;;;0.10;0.10;;;14.90;67.20;;;;;;4897907;29;20071;-81
2023/10/14 06:50:23;;;;;;;0.00;0.00;;;14.90;67.60;;;;;;4899489;29;20501;-83
2023/10/14 06:52:50;;;;;;;0.00;0.00;;;14.90;67.40;;;;;;4887147;29;20059;-91
2023/10/14 06:55:21;;;;;;;0.10;0.10;;;14.90;67.50;;;;;;4875353;29;20033;-90
2023/10/14 06:57:51;;;;;;;0.10;0.10;;;14.90;67.30;;;;;;4885299;29;20083;-93
2023/10/14 07:00:25;;;;;;;0.10;0.10;;;14.90;67.30;;;;;;4884771;29;20389;-80
2023/10/14 07:02:52;;;;;;;0.03;0.03;;;14.90;67.30;;;;;;4899126;29;20108;-83
2023/10/14 07:05:19;;;;;;;0.00;0.00;;;15.00;67.50;;;;;;4900267;29;20035;-83
2023/10/14 07:07:46;;;;;;;0.10;0.10;;;15.00;67.50;;;;;;4899437;29;20032;-80
2023/10/14 07:10:13;;;;;;;0.10;0.10;;;15.00;67.30;;;;;;4883644;29;20025;-80
2023/10/14 07:12:38;;;;;;;0.00;0.00;;;15.00;67.30;;;;;;4883143;29;20115;-87
2023/10/14 07:15:06;;;;;;;0.10;0.10;;;15.00;67.00;;;;;;4901014;29;20052;-87
2023/10/14 07:17:31;;;;;;;0.10;0.10;;;15.00;67.40;;;;;;4885153;29;20020;-84
2023/10/14 07:19:57;;;;;;;0.10;0.10;;;15.10;67.30;;;;;;4902054;29;20032;-91
2023/10/14 07:22:23;;;;;;;0.00;0.00;;;15.10;66.70;;;;;;4872973;29;20029;-89
2023/10/14 07:24:48;;;;;;;0.00;0.00;;;15.10;66.80;;;;;;4865585;29;20517;-83
2023/10/14 07:27:17;;;;;;;0.08;0.08;;;15.10;67.60;;;;;;4879613;29;20048;-84
2023/10/14 07:29:45;;;;;;;0.10;0.10;;;15.20;67.50;;;;;;4885158;29;20025;-90
2023/10/14 07:32:15;;;;;;;0.00;0.00;;;15.20;67.20;;;;;;4858648;29;20094;-87
2023/10/14 07:34:41;;;;;;;0.10;0.10;;;15.30;67.10;;;;;;4847952;29;20044;-88
2023/10/14 07:37:09;;;;;;;0.10;0.10;;;15.30;66.80;;;;;;4865599;29;20047;-90
2023/10/14 07:39:35;;;;;;;0.05;0.05;;;15.30;66.60;;;;;;4847772;29;20457;-91
2023/10/14 07:42:09;;;;;;;0.10;0.10;;;15.40;66.70;;;;;;4864528;29;20101;-87
2023/10/14 07:44:35;;;;;;;0.10;0.10;;;15.30;66.40;;;;;;4850278;29;20061;-89
2023/10/14 07:47:05;;;;;;;0.00;0.00;;;15.30;65.90;;;;;;4851180;29;20068;-83
2023/10/14 07:49:32;;;;;;;0.10;0.10;;;15.40;66.20;;;;;;4850797;29;20025;-89
2023/10/14 07:52:00;;;;;;;0.10;0.10;;;15.50;65.50;;;;;;4863992;29;20033;-89
2023/10/14 07:54:29;;;;;;;0.10;0.10;;;15.40;65.40;;;;;;4867645;29;20040;-89
2023/10/14 07:56:55;;;;;;;0.10;0.10;;;15.50;65.40;;;;;;4861833;29;20029;-86
2023/10/14 07:59:20;;;;;;;0.10;0.10;;;15.50;65.10;;;;;;4878869;29;20033;-86
2023/10/14 08:01:47;;;;;;;0.10;0.10;;;15.60;64.50;;;;;;4879330;29;20029;-88
2023/10/14 08:04:14;;;;;;;0.00;0.00;;;15.70;65.00;;;;;;4880587;29;20565;-87
2023/10/14 08:06:40;;;;;;;0.00;0.00;;;15.70;65.10;;;;;;4859803;29;20041;-85
2023/10/14 08:09:23;;;;;;;0.00;0.00;;;15.80;64.90;;;;;;4860756;29;20406;-86
2023/10/14 08:11:50;;;;;;;0.10;0.10;;;15.80;64.90;;;;;;4872560;29;20512;-84
2023/10/14 08:14:16;;;;;;;0.10;0.10;;;15.80;64.50;;;;;;4859155;29;20041;-85
2023/10/14 08:16:42;;;;;;;0.20;0.20;;;15.90;64.30;;;;;;4876270;29;20030;-91
2023/10/14 08:19:10;;;;;;;0.10;0.10;;;15.90;64.50;;;;;;4863241;29;20029;-82
2023/10/14 08:21:36;;;;;;;0.08;0.08;;;15.80;64.80;;;;;;4873326;29;20032;-90
2023/10/14 08:24:05;;;;;;;0.00;0.00;;;15.80;64.50;;;;;;4854597;29;20406;-85
2023/10/14 08:26:34;;;;;;;0.10;0.10;;;15.70;64.50;;;;;;4850294;29;20037;-85
2023/10/14 08:29:00;;;;;;;0.13;0.13;;;15.70;65.00;;;;;;4873096;29;20029;-82
2023/10/14 08:31:26;;;;;;;0.00;0.00;;;15.60;65.40;;;;;;4882060;29;20053;-83
2023/10/14 08:33:52;;;;;;;0.10;0.10;;;15.50;65.80;;;;;;4887077;29;20104;-86
2023/10/14 08:36:17;;;;;;;0.10;0.10;;;15.50;66.00;;;;;;4892725;29;20624;-81
2023/10/14 08:38:47;;;;;;;0.10;0.10;;;15.50;65.90;;;;;;4893684;29;20045;-82
2023/10/14 08:41:16;;;;;;;0.00;0.00;;;15.60;65.80;;;;;;4877576;29;20021;-84
2023/10/14 08:43:49;;;;;;;0.10;0.10;;;15.70;65.90;;;;;;4884483;29;20446;-84
2023/10/14 08:46:17;;;;;;;0.10;0.10;;;15.70;66.00;;;;;;4903434;29;20542;-82
2023/10/14 08:48:46;;;;;;;0.10;0.10;;;15.80;65.70;;;;;;4903647;29;20065;-82
2023/10/14 08:51:14;;;;;;;0.10;0.10;;;15.80;65.80;;;;;;4903052;29;20032;-81
2023/10/14 08:53:41;;;;;;;0.10;0.10;;;16.00;65.60;;;;;;4903513;29;20040;-81
2023/10/14 08:56:08;;;;;;;0.10;0.10;;;16.00;65.60;;;;;;4902617;29;20058;-80
2023/10/14 08:58:37;;;;;;;0.10;0.10;;;16.20;64.80;;;;;;4871055;29;20029;-88
2023/10/14 09:01:06;;;;;;;0.10;0.10;;;16.20;64.30;;;;;;4886523;29;20036;-85
2023/10/14 09:03:31;;;;;;;0.00;0.00;;;16.30;64.20;;;;;;4903223;29;20481;-83
2023/10/14 09:05:57;;;;;;;0.10;0.10;;;16.30;64.10;;;;;;4902974;29;20024;-82
2023/10/14 09:08:25;;;;;;;0.00;0.00;;;16.20;63.40;;;;;;4886226;29;20036;-86
2023/10/14 09:10:50;;;;;;;0.10;0.10;;;16.30;63.80;;;;;;4903193;29;20482;-88
2023/10/14 09:13:22;;;;;;;0.10;0.10;;;16.20;62.60;;;;;;4886578;29;20092;-85
2023/10/14 09:15:50;;;;;;;0.10;0.10;;;16.30;63.50;;;;;;4886215;29;20024;-86
2023/10/14 09:18:22;;;;;;;0.00;0.00;;;16.40;64.20;;;;;;4902917;29;20461;-86
2023/10/14 09:20:55;;;;;;;0.10;0.10;;;16.50;64.50;;;;;;4886158;29;20059;-82
2023/10/14 09:26:21;;;;;;;0.40;0.40;;;16.70;64.50;;;;;;4883800;29;20037;-86
2023/10/14 09:28:48;;;;;;;2.65;2.55;;;16.80;63.60;;;;;;4895779;29;20045;-84
2023/10/14 09:31:14;;;;;;;0.30;0.30;;;16.90;63.10;;;;;;4875332;29;20059;-81
2023/10/14 09:33:42;;;;;;;0.10;0.10;;;17.10;62.80;;;;;;4902928;29;20032;-90
2023/10/14 09:36:18;;;;;;;0.10;0.10;;;17.40;62.30;;;;;;4901418;29;20477;-83
2023/10/14 09:38:48;;;;;;;0.10;0.10;;;17.70;62.20;;;;;;4898517;29;20064;-82
2023/10/14 09:41:15;;;;;;;0.00;0.00;;;17.90;61.10;;;;;;4892129;29;20045;-82
2023/10/14 09:43:48;;;;;;;0.00;0.00;;;18.00;59.90;;;;;;4890214;29;20077;-83
2023/10/14 09:46:19;;;;;;;0.10;0.10;;;17.80;57.90;;;;;;4891202;29;20409;-81
2023/10/14 09:48:46;;;;;;;0.10;0.10;;;17.60;57.80;;;;;;4891124;29;20037;-82
2023/10/14 09:51:14;;;;;;;0.10;0.10;;;17.40;57.50;;;;;;4896894;29;20028;-81
2023/10/14 09:53:40;;;;;;;0.00;0.00;;;17.50;57.30;;;;;;4901190;29;20508;-84
2023/10/14 09:56:11;;;;;;;0.10;0.10;;;17.60;57.40;;;;;;4902395;29;20024;-83
2023/10/14 09:58:41;;;;;;;0.10;0.10;;;17.80;57.70;;;;;;4893238;29;20035;-85
2023/10/14 10:01:11;;;;;;;0.10;0.10;;;17.70;56.50;;;;;;4893219;29;20016;-83
2023/10/14 10:03:44;;;;;;;0.10;0.10;;;17.70;56.30;;;;;;4891425;29;20071;-83
2023/10/14 10:06:35;;;;;;;0.10;0.10;;;17.70;56.20;;;;;;4890371;29;20048;-84
2023/10/14 10:09:30;;;;;;;0.05;0.05;;;17.60;56.10;;;;;;4893127;29;20029;-84
2023/10/14 10:11:58;;;;;;;0.05;0.05;;;17.70;57.60;;;;;;4901104;29;20033;-83
2023/10/14 10:14:25;;;;;;;0.10;0.10;;;17.60;56.00;;;;;;4901856;29;20033;-83
2023/10/14 10:16:52;;;;;;;0.10;0.10;;;17.70;56.40;;;;;;4895323;29;20028;-83
2023/10/14 10:19:21;;;;;;;0.10;0.10;;;17.70;56.40;;;;;;4892100;29;20037;-84
2023/10/14 10:22:20;;;;;;;0.10;0.10;;;17.80;57.10;;;;;;4892051;29;20021;-83
2023/10/14 10:24:47;;;;;;;0.10;0.10;;;17.90;56.70;;;;;;4890937;29;20029;-87
2023/10/14 10:27:16;;;;;;;0.10;0.10;;;18.00;56.60;;;;;;4899662;29;20021;-87
2023/10/14 10:29:55;;;;;;;0.10;0.10;;;17.90;54.90;;;;;;4895365;29;20036;-86
2023/10/14 10:32:23;;;;;;;0.10;0.10;;;17.90;55.90;;;;;;4890826;29;20055;-88
2023/10/14 10:35:07;;;;;;;0.10;0.10;;;18.00;57.00;;;;;;4893013;29;20037;-90
2023/10/14 10:37:56;;;;;;;0.00;0.00;;;18.00;56.50;;;;;;4888625;29;20041;-85
2023/10/14 10:40:27;;;;;;;0.10;0.10;;;18.00;55.90;;;;;;4891698;29;20037;-91
2023/10/14 10:43:06;;;;;;;0.05;0.05;;;17.80;55.30;;;;;;4887437;29;20020;-84
2023/10/14 10:45:36;;;;;;;0.10;0.10;;;17.80;55.70;;;;;;4894454;29;20020;-84
2023/10/14 10:48:06;;;;;;;0.00;0.00;;;17.80;55.00;;;;;;4887135;29;20017;-81
2023/10/14 10:50:36;;;;;;;0.00;0.00;;;17.80;55.40;;;;;;4893632;29;20036;-87
2023/10/14 10:53:08;;;;;;;0.10;0.10;;;17.70;55.90;;;;;;4888910;29;20025;-90
2023/10/14 10:55:43;;;;;;;0.10;0.10;;;17.80;56.20;;;;;;4894564;29;20077;-79
2023/10/14 10:58:14;;;;;;;0.10;0.10;;;17.80;55.70;;;;;;4895055;29;20367;-79
2023/10/14 11:00:47;;;;;;;0.08;0.08;;;18.00;54.60;;;;;;4896569;29;20397;-80
2023/10/14 11:03:14;;;;;;;0.10;0.10;;;18.30;53.90;;;;;;4883302;29;20135;-79
2023/10/14 11:05:45;;;;;;;0.10;0.10;;;18.50;54.20;;;;;;4887789;29;20104;-81
2023/10/14 11:08:15;;;;;;;0.03;0.03;;;18.50;53.90;;;;;;4884911;29;20032;-80
2023/10/14 11:10:42;;;;;;;0.10;0.10;;;18.50;53.00;;;;;;4881655;29;20503;-82
2023/10/14 11:13:13;;;;;;;0.00;0.00;;;18.60;53.10;;;;;;4882491;29;20037;-80
2023/10/14 11:15:40;;;;;;;0.00;0.00;;;18.70;53.70;;;;;;4897525;29;20027;-80
2023/10/14 11:18:09;;;;;;;0.10;0.10;;;18.50;53.20;;;;;;4883158;29;20085;-81
2023/10/14 11:20:39;;;;;;;0.00;0.00;;;18.20;52.60;;;;;;4879312;29;20409;-81
2023/10/14 11:23:08;;;;;;;0.10;0.10;;;18.00;52.50;;;;;;4903364;29;20093;-79
2023/10/14 11:25:37;;;;;;;0.10;0.10;;;17.90;52.70;;;;;;4905033;29;20028;-80
2023/10/14 11:28:05;;;;;;;0.10;0.10;;;18.00;51.50;;;;;;4901882;29;20028;-83
2023/10/14 11:30:32;;;;;;;0.00;0.00;;;18.30;50.50;;;;;;4900275;29;20076;-84
2023/10/14 11:33:00;;;;;;;0.10;0.10;;;18.50;51.20;;;;;;4853387;29;20490;-87
2023/10/14 11:35:29;;;;;;;0.10;0.10;;;18.80;51.00;;;;;;4864128;29;20613;-82
2023/10/14 11:38:00;;;;;;;0.00;0.00;;;19.00;50.80;;;;;;4869538;29;20033;-80
2023/10/14 11:40:40;;;;;;;0.10;0.10;;;18.90;49.90;;;;;;4885910;29;20108;-82
2023/10/14 11:43:07;;;;;;;0.00;0.00;;;18.90;50.10;;;;;;4886053;29;20040;-81
2023/10/14 11:45:35;;;;;;;0.05;0.05;;;18.80;51.00;;;;;;4869260;29;20021;-82
2023/10/14 11:48:01;;;;;;;0.10;0.10;;;18.80;51.10;;;;;;4882877;29;20139;-85
2023/10/14 11:50:30;;;;;;;0.10;0.10;;;18.60;51.00;;;;;;4870908;29;20030;-83
2023/10/14 11:52:57;;;;;;;0.10;0.10;;;18.90;51.40;;;;;;4867080;29;20099;-82
2023/10/14 11:55:25;;;;;;;0.10;0.10;;;19.10;51.30;;;;;;4875593;29;20021;-84
2023/10/14 11:57:53;;;;;;;0.00;0.00;;;19.10;50.60;;;;;;4853993;29;20098;-82
2023/10/14 12:00:20;;;;;;;0.00;0.00;;;19.00;51.10;;;;;;4852542;29;20041;-83
2023/10/14 12:02:47;;;;;;;0.00;0.00;;;18.80;50.90;;;;;;4871623;29;20041;-81
2023/10/14 12:05:16;;;;;;;0.00;0.00;;;18.60;52.00;;;;;;4868326;29;20093;-82
2023/10/14 12:07:51;;;;;;;0.10;0.10;;;18.40;51.60;;;;;;4854896;29;20393;-82
2023/10/14 12:10:17;;;;;;;0.00;0.00;;;18.40;52.00;;;;;;4865183;29;20036;-84
2023/10/14 12:12:52;;;;;;;0.00;0.00;;;18.60;52.40;;;;;;4854462;29;20529;-84
2023/10/14 12:15:18;;;;;;;0.10;0.10;;;18.70;52.00;;;;;;4877009;29;20059;-84
2023/10/14 12:17:45;;;;;;;0.10;0.10;;;18.70;50.80;;;;;;4877150;29;20021;-83
2023/10/14 12:20:11;;;;;;;0.10;0.10;;;18.80;50.00;;;;;;4877525;29;20120;-81
2023/10/14 12:22:41;;;;;;;0.10;0.10;;;19.10;50.90;;;;;;4876038;29;20389;-81
2023/10/14 12:25:08;;;;;;;0.00;0.00;;;19.40;50.30;;;;;;4875872;29;20509;-83
2023/10/14 12:27:35;;;;;;;0.10;0.10;;;19.40;49.40;;;;;;4856220;29;20044;-81
2023/10/14 12:30:01;;;;;;;0.10;0.10;;;19.20;49.90;;;;;;4871961;29;20069;-83
2023/10/14 12:32:30;;;;;;;0.00;0.00;;;18.80;50.50;;;;;;4856059;29;20090;-82
2023/10/14 12:34:59;;;;;;;0.00;0.00;;;18.40;53.00;;;;;;4876607;29;20029;-82
2023/10/14 12:37:26;;;;;;;0.00;0.00;;;18.00;54.00;;;;;;4856842;29;20050;-81
2023/10/14 12:40:11;;;;;;;0.00;0.00;;;17.60;54.80;;;;;;4857387;29;20033;-83
2023/10/14 12:42:47;;;;;;;0.05;0.05;;;17.40;55.90;;;;;;4884072;29;20033;-82
2023/10/14 12:45:14;;;;;;;0.10;0.10;;;17.30;56.70;;;;;;4867415;29;20033;-81
2023/10/14 12:47:47;;;;;;;0.10;0.10;;;17.40;55.90;;;;;;4876808;29;20048;-82
2023/10/14 12:50:14;;;;;;;;;;;17.40;56.50;;;;;;4848666;29;20029;-83
2023/10/14 12:52:41;;;;;;;0.00;0.00;;;17.50;55.80;;;;;;4851847;29;20419;-82
2023/10/14 12:55:14;;;;;;;0.10;0.10;;;17.70;56.20;;;;;;4878914;29;20125;-82
2023/10/14 12:57:40;;;;;;;0.10;0.10;;;18.00;55.90;;;;;;4865487;29;20077;-83
2023/10/14 13:00:17;;;;;;;0.00;0.00;;;18.20;54.90;;;;;;4865864;29;20085;-82
2023/10/14 13:02:43;;;;;;;0.00;0.00;;;18.30;54.70;;;;;;4865345;29;20025;-82
2023/10/14 13:05:13;;;;;;;0.10;0.10;;;18.30;54.30;;;;;;4864997;29;20111;-83
2023/10/14 13:07:40;;;;;;;0.05;0.05;;;18.40;53.00;;;;;;4856056;29;20045;-82
2023/10/14 13:10:08;;;;;;;0.10;0.10;;;18.30;52.60;;;;;;4855106;29;20082;-82
2023/10/14 13:12:34;;;;;;;0.10;0.10;;;18.30;52.10;;;;;;4865094;29;20030;-83
2023/10/14 13:15:04;;;;;;;0.05;0.05;;;18.30;51.40;;;;;;4865059;29;20056;-83
2023/10/14 13:17:35;;;;;;;0.10;0.10;;;18.20;50.40;;;;;;4865305;29;20029;-83
2023/10/14 13:20:01;;;;;;;0.00;0.00;;;18.20;51.50;;;;;;4869009;29;20021;-83
2023/10/14 13:22:29;;;;;;;0.10;0.10;;;18.30;52.10;;;;;;4854752;29;20038;-82
2023/10/14 13:24:55;;;;;;;0.00;0.00;;;18.40;52.00;;;;;;4864247;29;20486;-80
2023/10/14 13:27:21;;;;;;;0.10;0.10;;;18.30;51.90;;;;;;4855888;29;20060;-84
2023/10/14 13:29:46;;;;;;;0.00;0.00;;;18.20;52.50;;;;;;4874674;29;20029;-84
2023/10/14 13:32:16;;;;;;;0.10;0.10;;;18.30;52.60;;;;;;4857754;29;20061;-83
2023/10/14 13:34:45;;;;;;;0.00;0.00;;;18.40;52.50;;;;;;4863491;29;20037;-85
2023/10/14 13:37:13;;;;;;;0.10;0.10;;;18.60;52.40;;;;;;4871465;29;20025;-83
2023/10/14 13:39:41;;;;;;;0.00;0.00;;;18.70;52.10;;;;;;4859845;29;20113;-84
2023/10/14 13:42:06;;;;;;;0.00;0.00;;;18.60;52.30;;;;;;4859498;29;20041;-83
2023/10/14 13:44:32;;;;;;;0.10;0.10;;;18.50;52.70;;;;;;4873265;29;20036;-89
2023/10/14 13:46:58;;;;;;;0.10;0.10;;;18.70;52.50;;;;;;4835320;29;20045;-87
2023/10/14 13:49:24;;;;;;;0.08;0.08;;;18.70;52.70;;;;;;4851383;29;20053;-81
2023/10/14 13:51:52;;;;;;;0.10;0.10;;;18.50;52.00;;;;;;4849864;29;20056;-82
2023/10/14 13:54:20;;;;;;;0.08;0.08;;;18.30;51.80;;;;;;4882921;29;20027;-83
2023/10/14 13:56:46;;;;;;;0.00;0.00;;;18.00;52.20;;;;;;4860324;29;20057;-82
2023/10/14 13:59:11;;;;;;;0.10;0.10;;;17.80;52.60;;;;;;4857310;29;20032;-82
2023/10/14 14:01:38;;;;;;;0.10;0.10;;;17.70;53.20;;;;;;4876937;29;20475;-82
2023/10/14 14:04:04;;;;;;;0.10;0.10;;;17.90;53.20;;;;;;4847498;29;20108;-89
2023/10/14 14:06:30;;;;;;;0.00;0.00;;;18.10;52.30;;;;;;4864189;29;20125;-82
2023/10/14 14:08:57;;;;;;;0.10;0.10;;;18.20;52.60;;;;;;4864298;29;20029;-86
2023/10/14 14:11:23;;;;;;;0.00;0.00;;;18.30;52.80;;;;;;4853575;29;20541;-82
2023/10/14 14:13:52;;;;;;;0.10;0.10;;;18.30;52.60;;;;;;4865670;29;20037;-88
2023/10/14 14:16:18;;;;;;;0.00;0.00;;;18.30;52.20;;;;;;4872721;29;20057;-82
2023/10/14 14:18:48;;;;;;;0.03;0.03;;;18.20;53.00;;;;;;4859056;29;20068;-82
2023/10/14 14:21:17;;;;;;;0.00;0.00;;;18.20;53.20;;;;;;4854469;29;20109;-83
2023/10/14 14:23:43;;;;;;;0.00;0.00;;;18.10;53.40;;;;;;4867256;29;20093;-84
2023/10/14 14:26:18;;;;;;;0.00;0.00;;;18.10;53.70;;;;;;4872983;29;20041;-84
2023/10/14 14:28:49;;;;;;;0.10;0.10;;;18.00;53.90;;;;;;4882536;29;20062;-87
2023/10/14 14:31:15;;;;;;;0.08;0.08;;;18.00;54.20;;;;;;4848231;29;20100;-82
2023/10/14 14:33:45;;;;;;;0.10;0.10;;;18.00;54.00;;;;;;4832743;29;20057;-83
2023/10/14 14:36:11;;;;;;;0.00;0.00;;;18.10;53.90;;;;;;4849781;29;20121;-81
2023/10/14 14:38:41;;;;;;;0.10;0.10;;;18.20;54.10;;;;;;4863669;29;20068;-85
2023/10/14 14:41:07;;;;;;;0.05;0.05;;;18.40;53.70;;;;;;4869359;29;20033;-89
2023/10/14 14:43:37;;;;;;;0.00;0.00;;;18.40;53.90;;;;;;4848682;29;20059;-88
2023/10/14 14:46:07;;;;;;;0.00;0.00;;;18.30;53.60;;;;;;4864830;29;20109;-83
2023/10/14 14:48:33;;;;;;;0.00;0.00;;;18.20;53.70;;;;;;4864400;29;20074;-92
2023/10/14 14:50:59;;;;;;;0.10;0.10;;;18.20;54.30;;;;;;4864007;29;20120;-82
2023/10/14 14:53:25;;;;;;;0.10;0.10;;;18.00;54.30;;;;;;4868858;29;20052;-84
2023/10/14 14:55:50;;;;;;;0.05;0.05;;;17.90;54.40;;;;;;4885082;29;20041;-89
2023/10/14 14:58:16;;;;;;;0.10;0.10;;;18.00;55.00;;;;;;4869296;29;20029;-88
2023/10/14 15:00:42;;;;;;;0.00;0.00;;;18.00;55.30;;;;;;4869211;29;20116;-89
2023/10/14 15:03:10;;;;;;;0.10;0.10;;;18.00;55.50;;;;;;4868894;29;20089;-87
2023/10/14 15:05:41;;;;;;;0.10;0.10;;;18.10;54.80;;;;;;4867213;29;20020;-85
2023/10/14 15:08:10;;;;;;;0.00;0.00;;;18.20;55.20;;;;;;4859536;29;20064;-80
2023/10/14 15:10:37;;;;;;;0.08;0.08;;;18.10;55.60;;;;;;4885385;29;20032;-83
2023/10/14 15:13:06;;;;;;;0.00;0.00;;;17.90;54.80;;;;;;4860341;29;20092;-80
2023/10/14 15:15:35;;;;;;;0.00;0.00;;;17.70;54.00;;;;;;4867471;29;20053;-81
2023/10/14 15:18:02;;;;;;;0.10;0.10;;;17.70;54.90;;;;;;4850403;29;20097;-82
2023/10/14 15:20:28;;;;;;;0.10;0.10;;;17.60;55.40;;;;;;4866446;29;20029;-87
2023/10/14 15:22:54;;;;;;;0.00;0.00;;;17.60;55.30;;;;;;4850984;29;20033;-80
2023/10/14 15:25:20;;;;;;;0.10;0.10;;;17.60;55.50;;;;;;4850788;29;20108;-78
2023/10/14 15:27:47;;;;;;;0.00;0.00;;;17.30;55.80;;;;;;4874020;29;20125;-77
2023/10/14 15:30:15;;;;;;;0.00;0.00;;;17.20;56.00;;;;;;4879471;29;20198;-78
2023/10/14 15:32:44;;;;;;;0.00;0.00;;;17.10;56.50;;;;;;4894815;29;20020;-77
2023/10/14 15:35:13;;;;;;;0.00;0.00;;;17.00;56.70;;;;;;4892476;29;20117;-77
2023/10/14 15:37:40;;;;;;;0.00;0.00;;;17.00;57.10;;;;;;4895097;29;20017;-77
2023/10/14 15:40:08;;;;;;;0.08;0.08;;;17.00;57.20;;;;;;4893312;29;20055;-78
2023/10/14 15:42:35;;;;;;;0.00;0.00;;;17.00;57.50;;;;;;4892623;29;20049;-78
2023/10/14 15:45:01;;;;;;;0.00;0.00;;;17.10;57.70;;;;;;4876872;29;20047;-78
2023/10/14 15:47:26;;;;;;;0.10;0.10;;;17.10;57.70;;;;;;4894957;29;20472;-79
2023/10/14 15:49:52;;;;;;;0.03;0.03;;;17.00;57.70;;;;;;4893602;29;20020;-82
2023/10/14 15:52:18;;;;;;;0.05;0.05;;;17.00;57.90;;;;;;4879961;29;20089;-77
2023/10/14 15:54:47;;;;;;;0.00;0.00;;;17.00;58.00;;;;;;4895234;29;20032;-78
2023/10/14 15:57:14;;;;;;;0.10;0.10;;;17.00;58.20;;;;;;4876546;29;20036;-79
2023/10/14 15:59:40;;;;;;;0.08;0.08;;;16.90;58.20;;;;;;4901479;29;21587;-79
2023/10/14 16:02:07;;;;;;;0.00;0.00;;;17.00;58.40;;;;;;4894527;29;20109;-80
2023/10/14 16:04:32;;;;;;;0.00;0.00;;;17.00;58.40;;;;;;4891816;29;20025;-81
2023/10/14 16:06:58;;;;;;;0.00;0.00;;;17.00;58.30;;;;;;4889487;29;20062;-78
2023/10/14 16:09:28;;;;;;;0.00;0.00;;;16.90;58.80;;;;;;4889831;29;20025;-77
2023/10/14 16:11:54;;;;;;;0.00;0.00;;;16.90;58.70;;;;;;4897404;29;20021;-83
2023/10/14 16:14:23;;;;;;;0.00;0.00;;;16.80;58.40;;;;;;4897548;29;20103;-78
2023/10/14 16:16:48;;;;;;;0.00;0.00;;;16.80;58.40;;;;;;4893479;29;20021;-81
2023/10/14 16:19:17;;;;;;;0.10;0.10;;;16.80;58.60;;;;;;4891894;29;20044;-86
2023/10/14 16:21:45;;;;;;;0.10;0.10;;;16.80;58.40;;;;;;4892655;29;20485;-84
2023/10/14 16:24:12;;;;;;;0.10;0.10;;;16.70;58.80;;;;;;4872849;29;20041;-84
2023/10/14 16:26:38;;;;;;;0.10;0.10;;;16.70;58.60;;;;;;4875548;29;20408;-90
2023/10/14 16:29:08;;;;;;;0.00;0.00;;;16.60;59.00;;;;;;4874555;29;20037;-88
2023/10/14 16:31:34;;;;;;;0.00;0.00;;;16.60;59.20;;;;;;4887034;29;20140;-83
2023/10/14 16:34:06;;;;;;;0.10;0.10;;;16.60;58.70;;;;;;4889292;29;20378;-88
2023/10/14 16:36:34;;;;;;;0.03;0.03;;;16.60;59.00;;;;;;4890704;29;20017;-83
2023/10/14 16:39:02;;;;;;;0.00;0.00;;;16.50;58.70;;;;;;4889588;29;20096;-86
2023/10/14 16:41:31;;;;;;;0.00;0.00;;;16.50;58.90;;;;;;4891164;29;20025;-82
2023/10/14 16:43:57;;;;;;;0.00;0.00;;;16.60;59.00;;;;;;4886568;29;20053;-83
2023/10/14 16:46:23;;;;;;;0.00;0.00;;;16.60;59.20;;;;;;4892059;29;20070;-84
2023/10/14 16:48:56;;;;;;;0.00;0.00;;;16.60;58.80;;;;;;4891211;29;20043;-82
2023/10/14 16:51:22;;;;;;;0.00;0.00;;;16.50;59.10;;;;;;4891622;29;20414;-83
2023/10/14 16:53:48;;;;;;;0.00;0.00;;;16.40;59.30;;;;;;4890135;29;20076;-82
2023/10/14 16:56:14;;;;;;;0.00;0.00;;;16.40;59.60;;;;;;4893612;29;20109;-82
2023/10/14 16:58:44;;;;;;;0.00;0.00;;;16.40;60.00;;;;;;4885671;29;20024;-87
2023/10/14 17:01:11;;;;;;;0.00;0.00;;;16.40;60.00;;;;;;4898885;29;20033;-86
2023/10/14 17:04:04;;;;;;;0.10;0.10;;;16.40;60.20;;;;;;4882723;29;20052;-86
2023/10/14 17:06:30;;;;;;;0.03;0.03;;;16.40;60.10;;;;;;4883667;29;20067;-85
2023/10/14 17:08:55;;;;;;;0.00;0.00;;;16.40;60.50;;;;;;4885543;29;20041;-83
2023/10/14 17:11:22;;;;;;;0.00;0.00;;;16.30;60.30;;;;;;4902258;29;20024;-93
2023/10/14 17:13:50;;;;;;;0.00;0.00;;;16.20;60.70;;;;;;4901674;29;20025;-83
2023/10/14 17:16:16;;;;;;;0.00;0.00;;;16.20;61.00;;;;;;4883851;29;20059;-89
2023/10/14 17:18:46;;;;;;;0.08;0.08;;;16.20;61.00;;;;;;4894087;29;20031;-90
2023/10/14 17:21:18;;;;;;;0.00;0.00;;;16.10;61.80;;;;;;4890643;29;20205;-90
2023/10/14 17:23:43;;;;;;;0.00;0.00;;;16.00;62.10;;;;;;4895658;29;20037;-92
2023/10/14 17:26:10;;;;;;;0.00;0.00;;;16.00;62.70;;;;;;4895407;29;20382;-81
2023/10/14 17:28:36;;;;;;;0.10;0.10;;;16.00;62.60;;;;;;4890693;29;20036;-86
2023/10/14 17:31:06;;;;;;;0.00;0.00;;;15.90;62.20;;;;;;4892099;29;20096;-88
2023/10/14 17:33:32;;;;;;;0.00;0.00;;;15.90;61.70;;;;;;4888847;29;20033;-84
2023/10/14 17:35:59;;;;;;;0.00;0.00;;;15.90;61.80;;;;;;4893322;29;20028;-87